Essington, United Kingdom
Current Conditions -  °F | °C
As of 8:50 PM on Tuesday 25 Nov 2014 (Local Time) from EGBB Reporting Station
Light Rain Light Rain  
Wind Chill: 37°   Ceiling: Unl
Heat Index: 41°   Visibility: 2.5mi
Dew Point: 39°   Wind: 6mph
Humidity: 93%   Direction: 360°N
Pressure: 30.09"   Gusts: NA
Location:  52.63°N, 2.06°W
Report Text: EGBB 252050Z 36005KT 4000 -RADZ BR FEW005 05/04 Q1019
Loading
Personal Weather Stations






























Interactive Weather Map New forecast layout! Learn more

10-Day Weather Forecast

Advertisements
Track Severe Weather on mobile